createdAt,value
2023-04-17T00:01:43.766Z,5.90
2023-04-17T00:04:11.496Z,5.63
2023-04-17T00:06:40.069Z,4.85
2023-04-17T00:09:07.166Z,5.35
2023-04-17T00:11:34.073Z,5.53
2023-04-17T00:14:01.078Z,4.90
2023-04-17T00:16:28.112Z,4.57
2023-04-17T00:18:55.653Z,5.68
2023-04-17T00:21:22.759Z,5.28
2023-04-17T00:23:49.863Z,5.45
2023-04-17T00:26:16.807Z,5.70
2023-04-17T00:28:43.798Z,5.30
2023-04-17T00:31:10.690Z,5.28
2023-04-17T00:33:37.559Z,6.22
2023-04-17T00:36:04.857Z,5.90
2023-04-17T00:38:31.792Z,5.30
2023-04-17T00:40:58.724Z,5.13
2023-04-17T00:43:25.618Z,5.47
2023-04-17T00:45:53.913Z,6.13
2023-04-17T00:48:24.191Z,5.20
2023-04-17T00:50:51.497Z,6.20
2023-04-17T00:53:18.689Z,5.45
2023-04-17T00:55:47.489Z,6.43
2023-04-17T00:58:15.462Z,7.93
2023-04-17T01:00:42.416Z,5.28
2023-04-17T01:03:09.462Z,5.40
2023-04-17T01:05:38.442Z,5.35
2023-04-17T01:08:05.921Z,4.78
2023-04-17T01:10:32.917Z,4.90
2023-04-17T01:13:04.056Z,7.15
2023-04-17T01:15:31.397Z,6.55
2023-04-17T01:17:58.603Z,5.45
2023-04-17T01:20:25.879Z,5.10
2023-04-17T01:22:52.803Z,4.60
2023-04-17T01:25:20.068Z,5.43
2023-04-17T01:27:47.094Z,5.55
2023-04-17T01:30:14.595Z,4.63
2023-04-17T01:32:41.627Z,6.30
2023-04-17T01:35:09.191Z,5.70
2023-04-17T01:37:36.553Z,5.82
2023-04-17T01:40:07.066Z,5.45
2023-04-17T01:42:37.061Z,5.63
2023-04-17T01:45:05.062Z,4.82
2023-04-17T01:47:32.006Z,6.70
2023-04-17T01:49:58.931Z,4.68
2023-04-17T01:52:25.824Z,5.47
2023-04-17T01:54:52.681Z,5.18
2023-04-17T01:57:19.569Z,7.15
2023-04-17T01:59:46.487Z,5.10
2023-04-17T02:02:13.560Z,5.20
2023-04-17T02:04:40.861Z,5.57
2023-04-17T02:07:07.940Z,5.70
2023-04-17T02:09:34.753Z,5.07
2023-04-17T02:12:02.411Z,5.45
2023-04-17T02:14:31.290Z,5.82
2023-04-17T02:16:58.323Z,4.95
2023-04-17T02:19:25.540Z,5.28
2023-04-17T02:21:52.518Z,5.72
2023-04-17T02:24:19.406Z,4.68
2023-04-17T02:26:46.396Z,5.40
2023-04-17T02:29:13.455Z,5.43
2023-04-17T02:31:43.682Z,4.80
2023-04-17T02:34:10.761Z,5.28
2023-04-17T02:36:37.694Z,5.30
2023-04-17T02:39:05.526Z,4.70
2023-04-17T02:41:32.546Z,4.72
2023-04-17T02:44:01.044Z,4.50
2023-04-17T02:46:27.967Z,5.60
2023-04-17T02:48:54.924Z,4.57
2023-04-17T02:51:21.814Z,4.78
2023-04-17T02:53:49.278Z,5.30
2023-04-17T02:56:16.205Z,4.85
2023-04-17T02:58:45.078Z,6.00
2023-04-17T03:01:12.156Z,5.78
2023-04-17T03:03:42.331Z,5.50
2023-04-17T03:06:12.418Z,6.82
2023-04-17T03:08:40.806Z,5.20
2023-04-17T03:11:07.791Z,5.32
2023-04-17T03:13:38.154Z,4.93
2023-04-17T03:16:05.788Z,5.50
2023-04-17T03:18:32.896Z,5.00
2023-04-17T03:20:59.813Z,5.15
2023-04-17T03:23:26.816Z,5.50
2023-04-17T03:25:53.836Z,5.43
2023-04-17T03:28:22.152Z,6.10
2023-04-17T03:30:49.503Z,5.57
2023-04-17T03:33:16.725Z,5.80
2023-04-17T03:35:44.390Z,4.75
2023-04-17T03:38:11.381Z,4.65
2023-04-17T03:40:38.371Z,4.57
2023-04-17T03:43:05.355Z,5.63
2023-04-17T03:45:32.405Z,5.13
2023-04-17T03:47:59.423Z,6.00
2023-04-17T03:50:26.452Z,5.43
2023-04-17T03:52:53.399Z,4.78
2023-04-17T03:55:20.391Z,5.53
2023-04-17T03:57:48.572Z,5.07
2023-04-17T04:00:16.438Z,5.35
2023-04-17T04:02:43.548Z,5.35
2023-04-17T04:05:10.672Z,4.95
2023-04-17T04:07:37.627Z,5.80
2023-04-17T04:10:04.950Z,6.03
2023-04-17T04:12:31.827Z,6.05
2023-04-17T04:14:58.666Z,4.95
2023-04-17T04:17:25.681Z,5.70
2023-04-17T04:19:52.528Z,6.53
2023-04-17T04:22:21.356Z,8.52
2023-04-17T04:24:48.273Z,6.72
2023-04-17T04:27:18.154Z,8.48
2023-04-17T04:29:45.682Z,6.05
2023-04-17T04:32:13.678Z,9.70
2023-04-17T04:34:42.170Z,7.38
2023-04-17T04:37:09.095Z,6.45
2023-04-17T04:39:38.116Z,5.50
2023-04-17T04:42:06.203Z,5.22
2023-04-17T04:44:37.699Z,4.82
2023-04-17T04:47:04.843Z,5.03
2023-04-17T04:49:31.827Z,4.88
2023-04-17T04:51:58.850Z,5.55
2023-04-17T04:54:25.877Z,5.63
2023-04-17T04:56:52.888Z,5.63
2023-04-17T04:59:19.880Z,5.50
2023-04-17T05:01:46.955Z,5.45
2023-04-17T05:04:14.061Z,6.90
2023-04-17T05:06:41.610Z,5.50
2023-04-17T05:09:08.543Z,7.93
2023-04-17T05:11:35.436Z,5.38
2023-04-17T05:14:02.514Z,5.88
2023-04-17T05:16:29.413Z,6.65
2023-04-17T05:18:56.470Z,5.65
2023-04-17T05:21:23.345Z,5.00
2023-04-17T05:23:50.383Z,4.95
2023-04-17T05:26:17.326Z,5.35
2023-04-17T05:28:45.214Z,3.80
2023-04-17T05:31:12.345Z,3.83
2023-04-17T05:33:39.238Z,4.45
2023-04-17T05:36:06.900Z,3.92
2023-04-17T05:38:33.788Z,3.55
2023-04-17T05:41:01.847Z,4.88
2023-04-17T05:43:28.886Z,4.10
2023-04-17T05:45:55.896Z,3.72
2023-04-17T05:48:22.853Z,3.47
2023-04-17T05:50:49.785Z,3.67
2023-04-17T05:53:17.327Z,4.28
2023-04-17T05:55:44.282Z,3.42
2023-04-17T06:00:44.055Z,3.85
2023-04-17T06:03:11.212Z,3.20
2023-04-17T06:05:38.311Z,3.00
2023-04-17T06:08:05.365Z,3.40
2023-04-17T06:10:33.727Z,3.45
2023-04-17T06:13:00.753Z,2.90
2023-04-17T06:15:27.719Z,4.03
2023-04-17T06:17:54.755Z,2.33
2023-04-17T06:20:21.657Z,3.33
2023-04-17T06:22:49.671Z,2.90
2023-04-17T06:25:16.749Z,3.00
2023-04-17T06:27:43.668Z,3.60
2023-04-17T06:30:11.112Z,2.53
2023-04-17T06:32:42.433Z,2.60
2023-04-17T06:35:10.914Z,2.78
2023-04-17T06:37:37.764Z,2.95
2023-04-17T06:40:05.210Z,3.15
2023-04-17T06:42:35.127Z,3.28
2023-04-17T06:45:02.238Z,2.58
2023-04-17T06:47:29.213Z,2.47
2023-04-17T06:49:57.984Z,2.90
2023-04-17T06:52:24.940Z,2.17
2023-04-17T06:54:55.054Z,2.72
2023-04-17T06:57:22.392Z,2.78
2023-04-17T06:59:49.316Z,3.28
2023-04-17T07:02:16.607Z,2.45
2023-04-17T07:04:43.708Z,2.20
2023-04-17T07:07:11.852Z,3.28
2023-04-17T07:09:39.101Z,2.67
2023-04-17T07:12:06.071Z,2.60
2023-04-17T07:14:33.664Z,2.90
2023-04-17T07:17:00.682Z,2.25
2023-04-17T07:19:27.797Z,2.88
2023-04-17T07:21:54.673Z,2.28
2023-04-17T07:24:21.630Z,2.40
2023-04-17T07:26:49.639Z,2.33
2023-04-17T07:29:16.811Z,2.55
2023-04-17T07:31:44.112Z,2.00
2023-04-17T07:34:11.108Z,2.30
2023-04-17T07:36:37.987Z,2.83
2023-04-17T07:39:06.606Z,3.08
2023-04-17T07:41:33.542Z,2.60
2023-04-17T07:44:03.426Z,2.70
2023-04-17T07:46:30.468Z,1.98
2023-04-17T07:48:57.496Z,2.42
2023-04-17T07:51:24.519Z,2.83
2023-04-17T07:53:51.420Z,2.53
2023-04-17T07:56:18.325Z,2.38
2023-04-17T07:58:45.428Z,2.72
2023-04-17T08:01:12.827Z,2.33
2023-04-17T08:03:41.850Z,3.28
2023-04-17T08:06:08.974Z,4.30
2023-04-17T08:08:36.403Z,2.25
2023-04-17T08:11:03.859Z,3.20
2023-04-17T08:13:34.382Z,3.08
2023-04-17T08:16:01.592Z,2.80
2023-04-17T08:18:28.567Z,2.30
2023-04-17T08:20:55.672Z,3.05
2023-04-17T08:23:22.667Z,2.65
2023-04-17T08:25:49.620Z,3.67
2023-04-17T08:28:17.000Z,3.50
2023-04-17T08:30:43.901Z,2.42
2023-04-17T08:33:13.382Z,3.45
2023-04-17T08:35:40.460Z,3.10
2023-04-17T08:38:08.325Z,2.50
2023-04-17T08:40:35.434Z,2.35
2023-04-17T08:43:03.226Z,3.65
2023-04-17T08:45:30.574Z,2.78
2023-04-17T08:47:57.453Z,2.63
2023-04-17T08:50:24.327Z,3.33
2023-04-17T08:52:52.724Z,2.35
2023-04-17T08:55:21.513Z,3.03
2023-04-17T08:58:04.164Z,4.13
2023-04-17T09:00:34.642Z,3.25
2023-04-17T09:03:08.217Z,2.83
2023-04-17T09:05:39.029Z,4.32
2023-04-17T09:08:17.319Z,3.50
2023-04-17T09:10:53.177Z,2.92
2023-04-17T09:16:04.977Z,3.75
2023-04-17T09:18:33.479Z,3.92
2023-04-17T09:21:02.266Z,2.90
2023-04-17T09:23:31.242Z,2.90
2023-04-17T09:26:12.603Z,2.85
2023-04-17T09:28:40.079Z,2.90
2023-04-17T09:31:28.011Z,2.08
2023-04-17T09:34:17.835Z,2.90
2023-04-17T09:36:44.776Z,2.53
2023-04-17T09:39:25.422Z,2.70
2023-04-17T09:42:10.474Z,3.33
2023-04-17T09:44:38.035Z,2.55
2023-04-17T09:47:05.599Z,3.70
2023-04-17T09:49:42.775Z,2.53
2023-04-17T09:52:09.609Z,2.60
2023-04-17T09:54:39.464Z,2.40
2023-04-17T09:57:10.997Z,2.70
2023-04-17T09:59:50.652Z,2.70
2023-04-17T10:02:20.000Z,2.58
2023-04-17T10:04:47.817Z,2.25
2023-04-17T10:07:14.846Z,2.28
2023-04-17T10:09:43.207Z,3.35
2023-04-17T10:12:18.267Z,2.60
2023-04-17T10:14:48.473Z,3.47
2023-04-17T10:17:26.512Z,2.38
2023-04-17T10:19:53.525Z,2.25
2023-04-17T10:22:20.329Z,3.47
2023-04-17T10:24:52.222Z,2.38
2023-04-17T10:27:24.921Z,3.20
2023-04-17T10:29:59.731Z,2.40
2023-04-17T10:32:30.951Z,3.75
2023-04-17T10:34:59.915Z,2.45
2023-04-17T10:37:47.029Z,2.58
2023-04-17T10:40:21.136Z,2.88
2023-04-17T10:43:08.267Z,3.50
2023-04-17T10:45:57.145Z,2.80
2023-04-17T10:48:28.384Z,3.58
2023-04-17T10:50:56.550Z,2.78
2023-04-17T10:53:58.386Z,2.63
2023-04-17T10:56:33.396Z,2.42
2023-04-17T10:59:01.794Z,3.40
2023-04-17T11:01:39.751Z,3.13
2023-04-17T11:04:07.569Z,2.53
2023-04-17T11:06:45.586Z,2.60
2023-04-17T11:09:13.036Z,2.92
2023-04-17T11:11:44.578Z,2.33
2023-04-17T11:14:14.981Z,2.65
2023-04-17T11:16:44.542Z,2.42
2023-04-17T11:19:13.611Z,2.40
2023-04-17T11:21:43.425Z,3.22
2023-04-17T11:24:10.404Z,2.92
2023-04-17T11:26:47.452Z,2.50
2023-04-17T11:29:15.595Z,2.70
2023-04-17T11:31:43.366Z,2.60
2023-04-17T11:34:11.271Z,2.50
2023-04-17T11:36:38.271Z,1.88
2023-04-17T11:39:05.382Z,2.95
2023-04-17T11:41:38.828Z,2.78
2023-04-17T11:44:09.736Z,2.85
2023-04-17T11:46:36.947Z,2.67
2023-04-17T11:49:07.712Z,2.90
2023-04-17T11:51:34.902Z,2.97
2023-04-17T11:54:01.794Z,2.50
2023-04-17T11:56:29.952Z,3.45
2023-04-17T11:58:58.609Z,2.80
2023-04-17T12:01:27.567Z,3.83
2023-04-17T12:03:59.082Z,2.90
2023-04-17T12:06:38.884Z,3.00
2023-04-17T12:09:07.240Z,2.95
2023-04-17T12:11:34.781Z,3.50
2023-04-17T12:14:05.120Z,2.92
2023-04-17T12:16:32.222Z,3.08
2023-04-17T12:18:59.169Z,3.45
2023-04-17T12:21:26.259Z,2.40
2023-04-17T12:23:53.842Z,3.30
2023-04-17T12:26:20.915Z,3.22
2023-04-17T12:28:47.869Z,2.72
2023-04-17T12:31:14.795Z,3.33
2023-04-17T12:33:41.739Z,2.42
2023-04-17T12:36:09.008Z,2.90
2023-04-17T12:38:36.195Z,2.90
2023-04-17T12:41:03.141Z,2.28
2023-04-17T12:43:31.673Z,2.60
2023-04-17T12:45:58.642Z,3.05
2023-04-17T12:48:25.796Z,3.10
2023-04-17T12:50:53.164Z,2.70
2023-04-17T12:53:20.093Z,2.80
2023-04-17T12:55:46.947Z,3.47
2023-04-17T12:58:14.029Z,3.03
2023-04-17T13:00:44.374Z,3.20
2023-04-17T13:03:12.356Z,2.70
2023-04-17T13:05:39.821Z,3.10
2023-04-17T13:08:09.717Z,3.40
2023-04-17T13:10:36.640Z,2.97
2023-04-17T13:13:04.764Z,3.13
2023-04-17T13:15:32.011Z,3.60
2023-04-17T13:17:58.943Z,2.38
2023-04-17T13:20:25.897Z,3.25
2023-04-17T13:22:53.136Z,2.85
2023-04-17T13:25:20.197Z,2.65
2023-04-17T13:27:47.082Z,2.60
2023-04-17T13:30:14.152Z,3.08
2023-04-17T13:32:41.255Z,3.38
2023-04-17T13:35:13.419Z,2.25
2023-04-17T13:37:43.362Z,3.42
2023-04-17T13:40:10.943Z,2.97
2023-04-17T13:42:38.315Z,2.70
2023-04-17T13:45:05.772Z,2.60
2023-04-17T13:47:32.722Z,2.58
2023-04-17T13:49:59.577Z,2.55
2023-04-17T13:52:26.944Z,2.53
2023-04-17T13:54:53.770Z,2.80
2023-04-17T13:57:20.657Z,2.08
2023-04-17T13:59:47.508Z,2.88
2023-04-17T14:02:14.986Z,2.80
2023-04-17T14:04:41.959Z,2.95
2023-04-17T14:07:08.883Z,2.50
2023-04-17T14:09:35.739Z,2.50
2023-04-17T14:12:02.588Z,2.55
2023-04-17T14:14:29.498Z,2.70
2023-04-17T14:16:56.970Z,2.85
2023-04-17T14:19:24.175Z,2.00
2023-04-17T14:21:50.995Z,2.33
2023-04-17T14:24:17.989Z,2.92
2023-04-17T14:26:45.003Z,3.03
2023-04-17T14:29:14.102Z,2.20
2023-04-17T14:31:41.356Z,2.38
2023-04-17T14:34:08.492Z,2.13
2023-04-17T14:36:35.959Z,2.20
2023-04-17T14:39:03.196Z,2.33
2023-04-17T14:41:33.981Z,2.70
2023-04-17T14:44:01.246Z,1.95
2023-04-17T14:46:28.278Z,2.47
2023-04-17T14:48:56.403Z,2.65
2023-04-17T14:51:27.245Z,2.60
2023-04-17T14:53:54.387Z,2.17
2023-04-17T14:56:24.290Z,2.22
2023-04-17T14:58:51.313Z,2.00
2023-04-17T15:01:18.293Z,1.90
2023-04-17T15:03:48.267Z,3.58
2023-04-17T15:06:16.527Z,2.22
2023-04-17T15:08:43.497Z,2.40
2023-04-17T15:11:10.537Z,2.80
2023-04-17T15:13:39.519Z,2.58
2023-04-17T15:16:06.778Z,2.38
2023-04-17T15:18:34.685Z,2.83
2023-04-17T15:21:01.753Z,2.22
2023-04-17T15:23:29.670Z,2.35
2023-04-17T15:25:57.881Z,2.60
2023-04-17T15:28:25.664Z,2.78
2023-04-17T15:30:52.721Z,2.25
2023-04-17T15:33:20.145Z,3.67
2023-04-17T15:35:47.169Z,2.10
2023-04-17T15:38:14.102Z,2.33
2023-04-17T15:40:41.114Z,2.22
2023-04-17T15:43:08.027Z,2.58
2023-04-17T15:45:34.923Z,2.47
2023-04-17T15:48:01.949Z,2.60
2023-04-17T15:50:29.347Z,2.38
2023-04-17T15:52:56.580Z,2.25
2023-04-17T15:55:23.572Z,3.75
2023-04-17T15:57:50.461Z,2.10
2023-04-17T16:00:17.897Z,4.45
2023-04-17T16:02:47.735Z,2.50
2023-04-17T16:05:16.012Z,2.30
2023-04-17T16:07:43.075Z,2.88
2023-04-17T16:10:14.462Z,3.20
2023-04-17T16:12:43.292Z,2.10
2023-04-17T16:15:17.344Z,2.80
2023-04-17T16:17:45.606Z,2.17
2023-04-17T16:20:13.206Z,2.45
2023-04-17T16:22:40.381Z,1.90
2023-04-17T16:25:07.693Z,2.58
2023-04-17T16:27:34.861Z,2.20
2023-04-17T16:30:03.051Z,2.92
2023-04-17T16:32:31.819Z,2.05
2023-04-17T16:34:59.127Z,2.58
2023-04-17T16:37:26.153Z,2.22
2023-04-17T16:39:53.017Z,2.20
2023-04-17T16:42:19.979Z,2.38
2023-04-17T16:44:47.096Z,2.65
2023-04-17T16:47:14.776Z,2.50
2023-04-17T16:49:42.723Z,2.30
2023-04-17T16:52:10.071Z,2.70
2023-04-17T16:54:37.115Z,2.30
2023-04-17T16:57:05.296Z,3.03
2023-04-17T16:59:32.565Z,2.80
2023-04-17T17:02:02.490Z,2.90
2023-04-17T17:04:30.409Z,2.33
2023-04-17T17:06:57.752Z,2.22
2023-04-17T17:09:25.596Z,2.30
2023-04-17T17:11:52.542Z,2.22
2023-04-17T17:14:19.505Z,2.25
2023-04-17T17:16:46.453Z,2.47
2023-04-17T17:19:14.835Z,2.55
2023-04-17T17:21:41.889Z,2.20
2023-04-17T17:24:08.776Z,3.40
2023-04-17T17:26:37.075Z,2.03
2023-04-17T17:29:04.813Z,2.78
2023-04-17T17:31:33.911Z,2.58
2023-04-17T17:34:11.849Z,3.00
2023-04-17T17:36:49.393Z,3.50
2023-04-17T17:39:16.584Z,2.60
2023-04-17T17:41:45.751Z,2.70
2023-04-17T17:44:14.362Z,2.92
2023-04-17T17:46:42.011Z,2.55
2023-04-17T17:49:08.957Z,3.03
2023-04-17T17:51:35.879Z,2.25
2023-04-17T17:54:02.783Z,3.42
2023-04-17T17:56:29.832Z,3.22
2023-04-17T17:58:56.807Z,2.78
2023-04-17T18:01:24.966Z,4.65
2023-04-17T18:03:53.057Z,2.70
2023-04-17T18:06:20.888Z,3.38
2023-04-17T18:08:47.912Z,4.40
2023-04-17T18:11:14.992Z,3.08
2023-04-17T18:13:41.934Z,3.15
2023-04-17T18:16:08.920Z,3.28
2023-04-17T18:18:35.963Z,3.70
2023-04-17T18:21:07.319Z,4.70
2023-04-17T18:23:34.284Z,3.67
2023-04-17T18:26:03.143Z,3.17
2023-04-17T18:28:30.259Z,2.97
2023-04-17T18:30:57.246Z,4.05
2023-04-17T18:33:24.749Z,3.88
2023-04-17T18:35:51.944Z,3.08
2023-04-17T18:38:18.904Z,2.92
2023-04-17T18:40:45.840Z,3.83
2023-04-17T18:43:12.850Z,3.30
2023-04-17T18:45:39.763Z,3.40
2023-04-17T18:48:06.979Z,2.90
2023-04-17T18:50:34.703Z,2.90
2023-04-17T18:53:02.356Z,4.20
2023-04-17T18:55:29.445Z,2.90
2023-04-17T18:57:56.340Z,5.30
2023-04-17T19:00:23.502Z,3.40
2023-04-17T19:02:50.576Z,3.47
2023-04-17T19:05:17.804Z,3.53
2023-04-17T19:07:44.788Z,3.90
2023-04-17T19:10:11.728Z,3.92
2023-04-17T19:12:38.721Z,3.65
2023-04-17T19:15:06.415Z,3.80
2023-04-17T19:17:33.295Z,3.75
2023-04-17T19:20:00.265Z,4.00
2023-04-17T19:22:27.144Z,3.55
2023-04-17T19:24:54.050Z,4.47
2023-04-17T19:27:21.118Z,3.60
2023-04-17T19:29:48.092Z,4.30
2023-04-17T19:32:18.286Z,4.95
2023-04-17T19:34:45.183Z,3.88
2023-04-17T19:37:12.081Z,4.45
2023-04-17T19:39:38.913Z,4.10
2023-04-17T19:42:06.083Z,3.70
2023-04-17T19:44:33.221Z,3.30
2023-04-17T19:47:00.129Z,4.45
2023-04-17T19:49:26.994Z,4.03
2023-04-17T19:51:55.114Z,5.18
2023-04-17T19:54:21.982Z,3.55
2023-04-17T19:56:48.907Z,3.50
2023-04-17T19:59:15.914Z,3.63
2023-04-17T20:01:44.533Z,3.55
2023-04-17T20:04:11.803Z,3.67
2023-04-17T20:06:39.760Z,3.75
2023-04-17T20:09:06.919Z,3.97
2023-04-17T20:11:34.543Z,3.72
2023-04-17T20:14:01.583Z,3.65
2023-04-17T20:16:28.589Z,3.80
2023-04-17T20:18:56.767Z,3.92
2023-04-17T20:21:24.332Z,3.00
2023-04-17T20:23:51.316Z,3.40
2023-04-17T20:26:18.554Z,4.40
2023-04-17T20:28:45.582Z,3.67
2023-04-17T20:31:12.540Z,3.05
2023-04-17T20:33:39.508Z,3.58
2023-04-17T20:36:06.547Z,3.78
2023-04-17T20:38:33.540Z,3.63
2023-04-17T20:41:00.468Z,3.65
2023-04-17T20:43:27.396Z,5.05
2023-04-17T20:45:54.284Z,3.45
2023-04-17T20:48:22.113Z,4.18
2023-04-17T20:50:49.064Z,3.80
2023-04-17T20:53:15.897Z,3.35
2023-04-17T20:55:43.025Z,3.10
2023-04-17T20:58:10.349Z,4.28
2023-04-17T21:00:40.153Z,3.40
2023-04-17T21:03:14.549Z,3.65
2023-04-17T21:05:41.495Z,3.60
2023-04-17T21:08:08.418Z,3.53
2023-04-17T21:10:35.378Z,3.72
2023-04-17T21:13:02.293Z,3.53
2023-04-17T21:15:29.174Z,3.78
2023-04-17T21:17:56.117Z,3.95
2023-04-17T21:20:23.262Z,4.15
2023-04-17T21:22:50.187Z,4.15
2023-04-17T21:25:17.163Z,3.92
2023-04-17T21:27:44.061Z,3.08
2023-04-17T21:30:11.174Z,3.45
2023-04-17T21:32:39.354Z,3.40
2023-04-17T21:35:06.806Z,4.18
2023-04-17T21:37:33.657Z,3.20
2023-04-17T21:40:00.527Z,3.50
2023-04-17T21:42:27.402Z,3.67
2023-04-17T21:44:54.298Z,4.88
2023-04-17T21:47:21.223Z,4.10
2023-04-17T21:49:48.524Z,3.92
2023-04-17T21:52:18.391Z,3.92
2023-04-17T21:54:45.924Z,4.50
2023-04-17T21:57:12.906Z,5.00
2023-04-17T21:59:40.048Z,3.28
2023-04-17T22:02:07.041Z,3.60
2023-04-17T22:04:34.026Z,3.85
2023-04-17T22:07:01.180Z,3.80
2023-04-17T22:09:29.175Z,3.45
2023-04-17T22:11:57.187Z,3.88
2023-04-17T22:14:24.118Z,3.72
2023-04-17T22:16:51.129Z,3.42
2023-04-17T22:19:18.032Z,3.17
2023-04-17T22:21:44.932Z,3.70
2023-04-17T22:24:12.085Z,3.00
2023-04-17T22:26:39.191Z,3.50
2023-04-17T22:29:06.173Z,3.72
2023-04-17T22:31:33.097Z,3.88
2023-04-17T22:34:00.143Z,3.55
2023-04-17T22:36:27.459Z,3.40
2023-04-17T22:38:54.416Z,3.63
2023-04-17T22:41:21.411Z,3.55
2023-04-17T22:43:49.561Z,3.00
2023-04-17T22:46:16.858Z,2.47
2023-04-17T22:48:47.181Z,3.00
2023-04-17T22:51:15.100Z,3.55
2023-04-17T22:53:42.790Z,3.30
2023-04-17T22:56:13.852Z,3.72
2023-04-17T22:58:40.786Z,3.28
2023-04-17T23:01:07.742Z,3.20
2023-04-17T23:03:35.068Z,3.05
2023-04-17T23:06:02.033Z,3.70
2023-04-17T23:08:30.967Z,3.65
2023-04-17T23:10:59.765Z,3.00
2023-04-17T23:13:30.688Z,3.10
2023-04-17T23:15:58.101Z,2.65
2023-04-17T23:18:25.088Z,2.60
2023-04-17T23:20:52.117Z,1.85
2023-04-17T23:23:19.058Z,1.52
2023-04-17T23:25:46.158Z,1.70
2023-04-17T23:28:13.172Z,1.77
2023-04-17T23:30:40.246Z,1.50
2023-04-17T23:33:07.483Z,2.05
2023-04-17T23:35:34.336Z,1.60
2023-04-17T23:38:01.226Z,1.70
2023-04-17T23:40:28.282Z,2.08
2023-04-17T23:42:55.719Z,1.65
2023-04-17T23:45:22.625Z,1.70
2023-04-17T23:47:49.682Z,2.33
2023-04-17T23:50:16.628Z,1.65
2023-04-17T23:52:43.572Z,1.98
2023-04-17T23:55:10.487Z,1.83
2023-04-17T23:57:38.470Z,2.60
